createdAt,value
2023-02-26T00:01:31.112Z,7.45
2023-02-26T00:04:01.012Z,7.45
2023-02-26T00:06:29.774Z,7.46
2023-02-26T00:08:57.334Z,7.47
2023-02-26T00:11:25.145Z,7.49
2023-02-26T00:13:54.332Z,7.50
2023-02-26T00:16:28.705Z,7.50
2023-02-26T00:18:57.054Z,7.51
2023-02-26T00:21:26.482Z,7.49
2023-02-26T00:23:54.532Z,7.47
2023-02-26T00:26:23.735Z,7.46
2023-02-26T00:28:53.272Z,7.45
2023-02-26T00:31:24.688Z,7.43
2023-02-26T00:33:53.938Z,7.42
2023-02-26T00:36:25.436Z,7.42
2023-02-26T00:39:09.908Z,7.38
2023-02-26T00:41:38.821Z,7.38
2023-02-26T00:44:07.916Z,7.36
2023-02-26T00:46:46.392Z,7.30
2023-02-26T00:49:27.412Z,7.24
2023-02-26T00:51:58.232Z,7.17
2023-02-26T00:54:28.077Z,7.17
2023-02-26T00:56:57.679Z,7.17
2023-02-26T00:59:26.487Z,7.18
2023-02-26T01:01:54.100Z,7.12
2023-02-26T01:04:24.593Z,7.07
2023-02-26T01:06:57.833Z,7.03
2023-02-26T01:09:27.857Z,6.98
2023-02-26T01:12:00.957Z,6.97
2023-02-26T01:14:32.281Z,6.96
2023-02-26T01:17:08.114Z,6.99
2023-02-26T01:19:45.379Z,7.01
2023-02-26T01:22:21.266Z,7.04
2023-02-26T01:24:54.448Z,7.04
2023-02-26T01:27:21.975Z,7.03
2023-02-26T01:29:51.000Z,7.01
2023-02-26T01:32:25.381Z,6.97
2023-02-26T01:35:02.168Z,6.97
2023-02-26T01:37:41.489Z,6.96
2023-02-26T01:40:36.178Z,6.91
2023-02-26T01:43:12.759Z,6.90
2023-02-26T01:45:58.220Z,6.86
2023-02-26T01:48:37.757Z,6.82
2023-02-26T01:51:05.595Z,6.85
2023-02-26T01:53:32.574Z,6.87
2023-02-26T01:56:06.392Z,6.86
2023-02-26T01:58:36.808Z,6.85
2023-02-26T02:01:06.270Z,6.85
2023-02-26T02:03:38.158Z,6.82
2023-02-26T02:06:09.263Z,6.80
2023-02-26T02:08:36.482Z,6.78
2023-02-26T02:11:08.499Z,6.75
2023-02-26T02:13:57.893Z,6.73
2023-02-26T02:16:40.278Z,6.72
2023-02-26T02:19:33.706Z,6.71
2023-02-26T02:22:40.304Z,6.67
2023-02-26T02:25:32.496Z,6.68
2023-02-26T02:28:14.149Z,6.67
2023-02-26T02:31:02.228Z,6.63
2023-02-26T02:33:37.363Z,6.64
2023-02-26T02:36:15.250Z,6.63
2023-02-26T02:38:49.572Z,6.64
2023-02-26T02:41:25.696Z,6.62
2023-02-26T02:43:55.164Z,6.61
2023-02-26T02:46:28.772Z,6.59
2023-02-26T02:49:03.295Z,6.57
2023-02-26T02:51:34.237Z,6.57
2023-02-26T02:54:10.413Z,6.57
2023-02-26T02:56:46.613Z,6.57
2023-02-26T02:59:22.167Z,6.56
2023-02-26T03:01:59.880Z,6.55
2023-02-26T03:04:26.913Z,6.56
2023-02-26T03:06:53.834Z,6.57
2023-02-26T03:09:20.838Z,6.54
2023-02-26T03:11:47.795Z,6.55
2023-02-26T03:14:15.760Z,6.55
2023-02-26T03:17:02.977Z,6.54
2023-02-26T03:19:38.406Z,6.56
2023-02-26T03:22:11.075Z,6.56
2023-02-26T03:24:48.538Z,6.57
2023-02-26T03:27:29.534Z,6.57
2023-02-26T03:30:02.260Z,6.59
2023-02-26T03:32:42.252Z,6.57
2023-02-26T03:35:15.859Z,6.56
2023-02-26T03:37:48.092Z,6.55
2023-02-26T03:40:22.075Z,6.55
2023-02-26T03:42:55.239Z,6.56
2023-02-26T03:45:29.000Z,6.57
2023-02-26T03:48:01.060Z,6.56
2023-02-26T03:50:35.797Z,6.55
2023-02-26T03:53:07.893Z,6.53
2023-02-26T03:55:41.533Z,6.55
2023-02-26T03:58:08.466Z,6.57
2023-02-26T04:00:43.139Z,6.57
2023-02-26T04:03:18.643Z,6.55
2023-02-26T04:05:50.752Z,6.53
2023-02-26T04:08:18.300Z,6.55
2023-02-26T04:10:54.205Z,6.52
2023-02-26T04:13:21.856Z,6.51
2023-02-26T04:15:48.857Z,6.51
2023-02-26T04:18:17.304Z,6.50
2023-02-26T04:20:44.214Z,6.50
2023-02-26T04:23:11.362Z,6.49
2023-02-26T04:25:38.427Z,6.48
2023-02-26T04:28:05.332Z,6.45
2023-02-26T04:30:32.636Z,6.44
2023-02-26T04:32:59.559Z,6.43
2023-02-26T04:35:27.985Z,6.41
2023-02-26T04:37:54.964Z,6.41
2023-02-26T04:40:23.900Z,6.40
2023-02-26T04:42:51.644Z,6.37
2023-02-26T04:45:18.574Z,6.36
2023-02-26T04:47:45.499Z,6.37
2023-02-26T04:50:12.427Z,6.38
2023-02-26T04:52:40.735Z,6.40
2023-02-26T04:55:08.994Z,6.40
2023-02-26T04:57:35.953Z,6.43
2023-02-26T05:00:07.153Z,6.45
2023-02-26T05:02:34.440Z,6.48
2023-02-26T05:05:01.797Z,6.49
2023-02-26T05:07:29.038Z,6.48
2023-02-26T05:09:57.317Z,6.48
2023-02-26T05:12:24.819Z,6.50
2023-02-26T05:14:51.766Z,6.50
2023-02-26T05:17:18.739Z,6.51
2023-02-26T05:19:45.649Z,6.53
2023-02-26T05:22:12.649Z,6.55
2023-02-26T05:24:39.604Z,6.53
2023-02-26T05:27:07.867Z,6.51
2023-02-26T05:29:34.858Z,6.49
2023-02-26T05:32:02.644Z,6.47
2023-02-26T05:34:30.003Z,6.46
2023-02-26T05:36:56.960Z,6.43
2023-02-26T05:39:23.888Z,6.43
2023-02-26T05:41:51.907Z,6.41
2023-02-26T05:44:20.237Z,6.37
2023-02-26T05:46:47.302Z,6.35
2023-02-26T05:49:14.187Z,6.36
2023-02-26T05:51:42.708Z,6.37
2023-02-26T05:54:10.153Z,6.40
2023-02-26T05:56:37.276Z,6.42
2023-02-26T05:59:04.550Z,6.43
2023-02-26T06:01:32.980Z,6.42
2023-02-26T06:04:00.948Z,6.43
2023-02-26T06:06:28.008Z,6.43
2023-02-26T06:08:55.210Z,6.43
2023-02-26T06:11:22.499Z,6.46
2023-02-26T06:13:49.758Z,6.47
2023-02-26T06:16:16.724Z,6.48
2023-02-26T06:18:44.985Z,6.47
2023-02-26T06:21:11.992Z,6.46
2023-02-26T06:23:39.033Z,6.46
2023-02-26T06:26:06.429Z,6.45
2023-02-26T06:28:33.530Z,6.46
2023-02-26T06:31:00.732Z,6.44
2023-02-26T06:33:27.918Z,6.43
2023-02-26T06:35:57.911Z,6.44
2023-02-26T06:38:24.896Z,6.43
2023-02-26T06:40:51.853Z,6.41
2023-02-26T06:43:18.736Z,6.40
2023-02-26T06:45:46.233Z,6.38
2023-02-26T06:48:13.711Z,6.37
2023-02-26T06:50:40.655Z,6.40
2023-02-26T06:53:09.284Z,6.42
2023-02-26T06:55:36.817Z,6.44
2023-02-26T06:58:03.753Z,6.49
2023-02-26T07:00:30.778Z,6.56
2023-02-26T07:02:58.273Z,6.60
2023-02-26T07:05:25.230Z,6.65
2023-02-26T07:07:52.190Z,6.68
2023-02-26T07:10:21.497Z,6.70
2023-02-26T07:12:48.659Z,6.72
2023-02-26T07:15:15.758Z,6.75
2023-02-26T07:17:42.690Z,6.81
2023-02-26T07:20:12.179Z,6.89
2023-02-26T07:22:39.141Z,7.01
2023-02-26T07:25:07.514Z,7.14
2023-02-26T07:27:36.382Z,7.36
2023-02-26T07:30:06.108Z,7.63
2023-02-26T07:32:33.562Z,7.80
2023-02-26T07:35:00.470Z,7.97
2023-02-26T07:37:29.029Z,8.14
2023-02-26T07:39:56.015Z,8.34
2023-02-26T07:42:22.967Z,8.66
2023-02-26T07:44:51.277Z,9.04
2023-02-26T07:47:18.400Z,9.37
2023-02-26T07:49:45.352Z,9.66
2023-02-26T07:52:12.319Z,9.79
2023-02-26T07:54:39.268Z,9.85
2023-02-26T07:57:06.253Z,9.91
2023-02-26T07:59:33.202Z,10.00
2023-02-26T08:02:01.545Z,10.02
2023-02-26T08:04:28.666Z,9.98
2023-02-26T08:06:57.175Z,9.96
2023-02-26T08:09:24.173Z,9.93
2023-02-26T08:11:51.147Z,10.01
2023-02-26T08:14:18.118Z,10.28
2023-02-26T08:16:45.412Z,10.56
2023-02-26T08:19:13.740Z,10.84
2023-02-26T08:21:40.893Z,11.18
2023-02-26T08:24:07.948Z,11.44
2023-02-26T08:26:37.164Z,11.63
2023-02-26T08:29:05.049Z,11.76
2023-02-26T08:31:32.348Z,11.85
2023-02-26T08:33:59.385Z,12.00
2023-02-26T08:36:28.022Z,12.14
2023-02-26T08:38:55.258Z,12.16
2023-02-26T08:41:23.129Z,12.08
2023-02-26T08:43:51.268Z,11.98
2023-02-26T08:46:18.251Z,11.93
2023-02-26T08:48:45.204Z,11.86
2023-02-26T08:51:12.263Z,11.94
2023-02-26T08:53:40.558Z,12.16
2023-02-26T08:56:07.865Z,12.40
2023-02-26T08:58:34.791Z,12.80
2023-02-26T09:01:01.743Z,13.37
2023-02-26T09:03:28.690Z,13.86
2023-02-26T09:05:55.671Z,14.37
2023-02-26T09:08:22.609Z,14.88
2023-02-26T09:10:51.020Z,15.56
2023-02-26T09:13:18.622Z,16.21
2023-02-26T09:15:45.555Z,16.95
2023-02-26T09:18:15.436Z,17.56
2023-02-26T09:20:42.967Z,18.07
2023-02-26T09:23:10.666Z,18.56
2023-02-26T09:25:38.875Z,19.13
2023-02-26T09:28:07.484Z,19.60
2023-02-26T09:30:34.495Z,20.01
2023-02-26T09:33:01.511Z,20.52
2023-02-26T09:35:28.585Z,20.66
2023-02-26T09:37:55.551Z,21.06
2023-02-26T09:40:36.773Z,21.68
2023-02-26T09:43:31.039Z,22.49
2023-02-26T09:46:05.942Z,23.22
2023-02-26T09:48:36.988Z,23.91
2023-02-26T09:51:08.207Z,24.34
2023-02-26T09:53:41.224Z,24.42
2023-02-26T09:56:16.596Z,24.61
2023-02-26T09:58:46.218Z,24.83
2023-02-26T10:01:22.371Z,24.98
2023-02-26T10:04:10.888Z,25.11
2023-02-26T10:06:53.090Z,25.38
2023-02-26T10:09:39.785Z,25.79
2023-02-26T10:12:12.098Z,26.22
2023-02-26T10:14:49.474Z,25.92
2023-02-26T10:17:23.005Z,25.27
2023-02-26T10:19:58.307Z,25.01
2023-02-26T10:22:35.421Z,24.97
2023-02-26T10:25:09.502Z,24.19
2023-02-26T10:27:55.282Z,23.61
2023-02-26T10:30:36.208Z,23.07
2023-02-26T10:33:17.734Z,22.94
2023-02-26T10:35:52.772Z,22.98
2023-02-26T10:38:25.289Z,22.94
2023-02-26T10:40:59.779Z,22.36
2023-02-26T10:43:32.570Z,21.15
2023-02-26T10:46:22.995Z,19.92
2023-02-26T10:49:24.598Z,19.06
2023-02-26T10:51:53.540Z,18.94
2023-02-26T10:54:27.710Z,18.86
2023-02-26T10:56:54.607Z,18.58
2023-02-26T10:59:21.739Z,18.08
2023-02-26T11:01:52.458Z,17.92
2023-02-26T11:04:23.857Z,17.72
2023-02-26T11:06:56.291Z,17.76
2023-02-26T11:09:28.742Z,17.92
2023-02-26T11:12:04.657Z,18.00
2023-02-26T11:14:33.410Z,18.16
2023-02-26T11:17:07.457Z,18.44
2023-02-26T11:19:39.646Z,18.72
2023-02-26T11:22:12.213Z,18.70
2023-02-26T11:24:46.279Z,18.07
2023-02-26T11:27:16.197Z,17.43
2023-02-26T11:29:48.263Z,16.97
2023-02-26T11:32:21.441Z,16.83
2023-02-26T11:34:51.866Z,16.82
2023-02-26T11:37:22.798Z,17.01
2023-02-26T11:39:57.914Z,17.50
2023-02-26T11:42:26.388Z,18.04
2023-02-26T11:44:54.795Z,18.44
2023-02-26T11:47:29.579Z,18.69
2023-02-26T11:50:05.391Z,18.22
2023-02-26T11:52:40.152Z,17.83
2023-02-26T11:55:21.554Z,17.80
2023-02-26T11:57:56.060Z,17.77
2023-02-26T12:00:31.026Z,17.75
2023-02-26T12:03:04.522Z,17.52
2023-02-26T12:05:31.983Z,17.40
2023-02-26T12:07:59.806Z,17.41
2023-02-26T12:10:40.116Z,17.51
2023-02-26T12:13:20.656Z,17.63
2023-02-26T12:15:57.085Z,17.80
2023-02-26T12:18:43.443Z,18.12
2023-02-26T12:21:39.810Z,18.34
2023-02-26T12:24:30.310Z,18.38
2023-02-26T12:27:04.579Z,17.91
2023-02-26T12:29:51.473Z,17.26
2023-02-26T12:32:47.722Z,16.85
2023-02-26T12:35:42.802Z,16.71
2023-02-26T12:38:21.523Z,16.77
2023-02-26T12:41:14.840Z,16.65
2023-02-26T12:43:48.887Z,16.50
2023-02-26T12:46:34.004Z,16.34
2023-02-26T12:49:23.383Z,16.38
2023-02-26T12:52:16.077Z,16.82
2023-02-26T12:55:09.376Z,17.38
2023-02-26T12:58:24.427Z,18.04
2023-02-26T13:01:10.036Z,18.26
2023-02-26T13:04:43.952Z,17.95
2023-02-26T13:07:50.981Z,18.14
2023-02-26T13:10:29.712Z,18.43
2023-02-26T13:13:16.446Z,18.55
2023-02-26T13:16:15.074Z,18.48
2023-02-26T13:18:56.766Z,18.36
2023-02-26T13:21:30.912Z,18.12
2023-02-26T13:24:06.900Z,17.74
2023-02-26T13:26:36.524Z,17.40
2023-02-26T13:29:09.530Z,17.27
2023-02-26T13:31:43.336Z,17.13
2023-02-26T13:34:18.985Z,16.79
2023-02-26T13:36:47.866Z,16.49
2023-02-26T13:39:36.631Z,16.12
2023-02-26T13:42:21.062Z,15.84
2023-02-26T13:45:07.752Z,15.60
2023-02-26T13:47:55.248Z,15.49
2023-02-26T13:50:35.538Z,15.46
2023-02-26T13:53:29.691Z,15.42
2023-02-26T13:56:13.179Z,15.48
2023-02-26T13:58:44.427Z,15.82
2023-02-26T14:01:17.568Z,16.05
2023-02-26T14:03:52.454Z,15.89
2023-02-26T14:06:37.694Z,15.67
2023-02-26T14:09:26.549Z,15.50
2023-02-26T14:12:22.625Z,15.24
2023-02-26T14:15:39.298Z,14.95
2023-02-26T14:18:20.247Z,14.99
2023-02-26T14:20:47.231Z,15.25
2023-02-26T14:23:36.494Z,15.15
2023-02-26T14:26:18.677Z,14.96
2023-02-26T14:28:58.552Z,14.67
2023-02-26T14:31:27.359Z,14.37
2023-02-26T14:34:15.204Z,14.09
2023-02-26T14:36:49.244Z,14.05
2023-02-26T14:39:29.399Z,14.22
2023-02-26T14:42:03.877Z,14.30
2023-02-26T14:44:40.062Z,14.27
2023-02-26T14:47:08.392Z,14.25
2023-02-26T14:49:40.071Z,14.16
2023-02-26T14:52:37.039Z,14.06
2023-02-26T14:55:27.352Z,14.07
2023-02-26T14:58:15.569Z,14.08
2023-02-26T15:00:55.752Z,13.97
2023-02-26T15:04:03.712Z,13.73
2023-02-26T15:06:51.799Z,13.40
2023-02-26T15:09:26.462Z,13.14
2023-02-26T15:12:26.557Z,12.80
2023-02-26T15:15:15.542Z,12.52
2023-02-26T15:18:18.128Z,12.24
2023-02-26T15:21:00.320Z,12.08
2023-02-26T15:23:42.046Z,11.95
2023-02-26T15:26:19.377Z,11.89
2023-02-26T15:28:47.806Z,11.90
2023-02-26T15:31:16.313Z,11.95
2023-02-26T15:33:47.854Z,12.00
2023-02-26T15:36:21.875Z,12.08
2023-02-26T15:38:54.935Z,12.14
2023-02-26T15:41:25.039Z,12.17
2023-02-26T15:43:57.122Z,12.14
2023-02-26T15:46:31.597Z,12.13
2023-02-26T15:49:07.379Z,12.10
2023-02-26T15:51:35.222Z,12.00
2023-02-26T15:54:03.733Z,11.92
2023-02-26T15:56:36.737Z,11.86
2023-02-26T15:59:09.503Z,11.86
2023-02-26T16:01:36.909Z,11.89
2023-02-26T16:04:13.268Z,11.89
2023-02-26T16:06:45.831Z,11.91
2023-02-26T16:09:25.399Z,11.90
2023-02-26T16:11:58.052Z,11.89
2023-02-26T16:14:29.880Z,11.89
2023-02-26T16:16:58.086Z,11.83
2023-02-26T16:19:36.083Z,11.69
2023-02-26T16:22:16.374Z,11.64
2023-02-26T16:24:44.665Z,11.64
2023-02-26T16:27:14.166Z,11.63
2023-02-26T16:29:51.749Z,11.61
2023-02-26T16:32:19.975Z,11.61
2023-02-26T16:34:53.433Z,11.59
2023-02-26T16:37:34.386Z,11.57
2023-02-26T16:40:19.872Z,11.53
2023-02-26T16:42:59.613Z,11.52
2023-02-26T16:45:49.410Z,11.49
2023-02-26T16:48:24.134Z,11.47
2023-02-26T16:50:58.475Z,11.47
2023-02-26T16:53:35.158Z,11.48
2023-02-26T16:56:04.280Z,11.50
2023-02-26T16:58:32.615Z,11.49
2023-02-26T17:01:09.066Z,11.50
2023-02-26T17:03:38.431Z,11.51
2023-02-26T17:06:11.644Z,11.53
2023-02-26T17:08:49.019Z,11.51
2023-02-26T17:11:25.444Z,11.53
2023-02-26T17:14:12.735Z,11.52
2023-02-26T17:16:40.231Z,11.52
2023-02-26T17:19:07.230Z,11.49
2023-02-26T17:21:43.313Z,11.41
2023-02-26T17:24:18.285Z,11.38
2023-02-26T17:26:47.661Z,11.36
2023-02-26T17:29:22.993Z,11.34
2023-02-26T17:31:50.845Z,11.38
2023-02-26T17:34:20.951Z,11.39
2023-02-26T17:36:49.759Z,11.41
2023-02-26T17:39:16.618Z,11.42
2023-02-26T17:41:45.152Z,11.43
2023-02-26T17:44:12.361Z,11.42
2023-02-26T17:46:39.508Z,11.42
2023-02-26T17:49:06.976Z,11.42
2023-02-26T17:51:33.855Z,11.42
2023-02-26T17:54:02.297Z,11.42
2023-02-26T17:56:34.321Z,11.39
2023-02-26T17:59:02.239Z,11.38
2023-02-26T18:01:30.013Z,11.36
2023-02-26T18:03:57.852Z,11.33
2023-02-26T18:06:25.752Z,11.29
2023-02-26T18:08:54.188Z,11.24
2023-02-26T18:11:25.839Z,11.19
2023-02-26T18:13:55.159Z,11.13
2023-02-26T18:16:29.227Z,11.05
2023-02-26T18:18:56.112Z,10.99
2023-02-26T18:21:23.095Z,10.92
2023-02-26T18:23:50.267Z,10.84
2023-02-26T18:26:22.793Z,10.78
2023-02-26T18:28:51.328Z,10.69
2023-02-26T18:31:20.015Z,10.62
2023-02-26T18:33:47.510Z,10.54
2023-02-26T18:36:23.906Z,10.48
2023-02-26T18:38:51.086Z,10.42
2023-02-26T18:41:18.931Z,10.37
2023-02-26T18:43:47.148Z,10.33
2023-02-26T18:46:14.255Z,10.27
2023-02-26T18:48:41.213Z,10.19
2023-02-26T18:51:08.361Z,10.11
2023-02-26T18:53:35.365Z,10.03
2023-02-26T18:56:02.647Z,9.96
2023-02-26T18:58:29.902Z,9.89
2023-02-26T19:00:59.232Z,9.84
2023-02-26T19:03:26.611Z,9.83
2023-02-26T19:05:58.200Z,9.78
2023-02-26T19:08:25.624Z,9.76
2023-02-26T19:10:52.807Z,9.72
2023-02-26T19:13:19.728Z,9.68
2023-02-26T19:15:46.824Z,9.64
2023-02-26T19:18:15.114Z,9.61
2023-02-26T19:20:42.392Z,9.59
2023-02-26T19:23:09.497Z,9.59
2023-02-26T19:25:37.716Z,9.62
2023-02-26T19:28:05.491Z,9.61
2023-02-26T19:30:34.470Z,9.61
2023-02-26T19:33:02.224Z,9.62
2023-02-26T19:35:30.720Z,9.59
2023-02-26T19:37:57.927Z,9.57
2023-02-26T19:40:25.225Z,9.51
2023-02-26T19:42:52.161Z,9.43
2023-02-26T19:45:19.381Z,9.36
2023-02-26T19:47:46.709Z,9.31
2023-02-26T19:50:14.337Z,9.27
2023-02-26T19:52:43.049Z,9.27
2023-02-26T19:55:11.167Z,9.28
2023-02-26T19:57:38.379Z,9.28
2023-02-26T20:00:07.132Z,9.29
2023-02-26T20:02:34.472Z,9.30
2023-02-26T20:05:01.467Z,9.32
2023-02-26T20:07:28.518Z,9.31
2023-02-26T20:09:56.977Z,9.26
2023-02-26T20:12:23.863Z,9.17
2023-02-26T20:14:51.185Z,9.08
2023-02-26T20:17:18.436Z,9.00
2023-02-26T20:19:46.342Z,8.95
2023-02-26T20:22:13.291Z,8.92
2023-02-26T20:24:41.156Z,8.92
2023-02-26T20:27:09.692Z,8.94
2023-02-26T20:29:36.859Z,8.97
2023-02-26T20:32:04.997Z,9.04
2023-02-26T20:34:32.188Z,9.09
2023-02-26T20:36:59.391Z,9.14
2023-02-26T20:39:26.436Z,9.17
2023-02-26T20:41:53.631Z,9.19
2023-02-26T20:44:21.862Z,9.16
2023-02-26T20:46:49.277Z,9.10
2023-02-26T20:49:17.244Z,9.01
2023-02-26T20:51:44.590Z,8.93
2023-02-26T20:54:17.568Z,8.90
2023-02-26T20:56:45.172Z,8.90
2023-02-26T20:59:12.318Z,8.94
2023-02-26T21:01:40.949Z,8.98
2023-02-26T21:04:09.468Z,8.97
2023-02-26T21:06:37.588Z,8.92
2023-02-26T21:09:06.681Z,8.83
2023-02-26T21:11:36.630Z,8.75
2023-02-26T21:14:07.410Z,8.65
2023-02-26T21:16:35.726Z,8.57
2023-02-26T21:19:04.452Z,8.49
2023-02-26T21:21:31.799Z,8.41
2023-02-26T21:23:58.856Z,8.36
2023-02-26T21:26:27.526Z,8.30
2023-02-26T21:28:54.629Z,8.26
2023-02-26T21:31:21.940Z,8.25
2023-02-26T21:33:49.245Z,8.29
2023-02-26T21:36:17.545Z,8.28
2023-02-26T21:38:44.698Z,8.26
2023-02-26T21:41:11.676Z,8.24
2023-02-26T21:43:39.247Z,8.22
2023-02-26T21:46:06.564Z,8.18
2023-02-26T21:48:33.542Z,8.15
2023-02-26T21:51:00.753Z,8.13
2023-02-26T21:53:29.103Z,8.11
2023-02-26T21:55:56.739Z,8.05
2023-02-26T21:58:24.085Z,7.97
2023-02-26T22:00:51.676Z,7.92
2023-02-26T22:03:18.696Z,7.84
2023-02-26T22:05:45.578Z,7.76
2023-02-26T22:08:12.573Z,7.71
2023-02-26T22:10:40.852Z,7.68
2023-02-26T22:13:07.800Z,7.64
2023-02-26T22:15:34.992Z,7.62
2023-02-26T22:18:02.018Z,7.59
2023-02-26T22:20:30.160Z,7.55
2023-02-26T22:22:57.408Z,7.53
2023-02-26T22:25:24.536Z,7.49
2023-02-26T22:27:52.792Z,7.45
2023-02-26T22:30:19.720Z,7.42
2023-02-26T22:32:47.242Z,7.41
2023-02-26T22:35:14.356Z,7.42
2023-02-26T22:37:42.193Z,7.49
2023-02-26T22:40:12.614Z,7.61
2023-02-26T22:42:41.050Z,7.66
2023-02-26T22:45:17.106Z,7.67
2023-02-26T22:47:44.535Z,7.66
2023-02-26T22:50:13.083Z,7.73
2023-02-26T22:52:40.744Z,7.78
2023-02-26T22:55:10.273Z,7.80
2023-02-26T22:57:37.368Z,7.87
2023-02-26T23:00:08.883Z,7.95
2023-02-26T23:02:38.833Z,8.01
2023-02-26T23:05:06.976Z,8.00
2023-02-26T23:07:34.009Z,7.93
2023-02-26T23:10:01.384Z,7.85
2023-02-26T23:12:28.398Z,7.75
2023-02-26T23:14:55.532Z,7.65
2023-02-26T23:17:22.476Z,7.62
2023-02-26T23:19:50.722Z,7.58
2023-02-26T23:22:17.755Z,7.51
2023-02-26T23:24:46.249Z,7.48
2023-02-26T23:27:13.368Z,7.43
2023-02-26T23:29:46.479Z,7.37
2023-02-26T23:32:15.077Z,7.28
2023-02-26T23:34:42.186Z,7.20
2023-02-26T23:37:10.587Z,7.14
2023-02-26T23:39:37.500Z,7.08
2023-02-26T23:42:04.704Z,7.03
2023-02-26T23:44:31.978Z,6.98
2023-02-26T23:46:59.455Z,6.93
2023-02-26T23:49:26.387Z,6.91
2023-02-26T23:51:53.322Z,6.90
2023-02-26T23:54:21.574Z,6.91
2023-02-26T23:56:48.472Z,6.92
2023-02-26T23:59:17.742Z,6.93
